createdAt,value
2018-04-18T00:00:52.073Z,9.63
2018-04-18T00:01:52.079Z,9.63
2018-04-18T00:02:52.077Z,9.56
2018-04-18T00:03:52.078Z,9.45
2018-04-18T00:04:52.120Z,9.53
2018-04-18T00:05:52.075Z,9.48
2018-04-18T00:06:52.074Z,9.52
2018-04-18T00:07:52.071Z,9.45
2018-04-18T00:08:52.071Z,9.49
2018-04-18T00:09:52.118Z,9.48
2018-04-18T00:10:52.071Z,9.39
2018-04-18T00:11:52.067Z,9.35
2018-04-18T00:12:52.075Z,9.42
2018-04-18T00:13:52.068Z,9.38
2018-04-18T00:14:52.113Z,9.31
2018-04-18T00:15:52.079Z,9.24
2018-04-18T00:16:52.062Z,9.24
2018-04-18T00:17:52.066Z,9.27
2018-04-18T00:18:52.144Z,9.32
2018-04-18T00:19:52.117Z,9.31
2018-04-18T00:20:52.060Z,9.27
2018-04-18T00:21:52.060Z,9.28
2018-04-18T00:22:52.062Z,9.28
2018-04-18T00:23:52.059Z,9.18
2018-04-18T00:24:52.111Z,9.23
2018-04-18T00:25:52.057Z,9.27
2018-04-18T00:26:52.174Z,9.25
2018-04-18T00:27:52.873Z,9.09
2018-04-18T00:28:52.053Z,9.12
2018-04-18T00:29:52.098Z,9.06
2018-04-18T00:30:52.049Z,9.04
2018-04-18T00:31:52.109Z,9.12
2018-04-18T00:32:52.049Z,9.12
2018-04-18T00:33:52.050Z,9.10
2018-04-18T00:35:03.062Z,9.04
2018-04-18T00:35:52.047Z,9.09
2018-04-18T00:36:52.051Z,9.15
2018-04-18T00:37:52.048Z,9.13
2018-04-18T00:38:52.049Z,9.06
2018-04-18T00:39:52.083Z,9.16
2018-04-18T00:40:52.042Z,9.10
2018-04-18T00:41:52.384Z,9.10
2018-04-18T00:42:52.038Z,9.02
2018-04-18T00:43:52.040Z,9.01
2018-04-18T00:44:52.199Z,8.96
2018-04-18T00:45:52.035Z,8.86
2018-04-18T00:46:52.036Z,8.78
2018-04-18T00:47:52.035Z,8.81
2018-04-18T00:48:52.028Z,8.87
2018-04-18T00:49:52.032Z,8.78
2018-04-18T00:50:52.077Z,8.72
2018-04-18T00:51:52.030Z,8.58
2018-04-18T00:52:52.028Z,8.60
2018-04-18T00:53:52.026Z,8.53
2018-04-18T00:54:52.027Z,8.53
2018-04-18T00:55:52.086Z,8.53
2018-04-18T00:56:52.024Z,8.53
2018-04-18T00:57:52.025Z,8.51
2018-04-18T00:58:53.038Z,8.55
2018-04-18T00:59:52.021Z,8.48
2018-04-18T01:00:52.092Z,8.48
2018-04-18T01:01:52.020Z,8.44
2018-04-18T01:02:52.017Z,8.45
2018-04-18T01:03:52.011Z,8.47
2018-04-18T01:04:52.020Z,8.40
2018-04-18T01:05:52.072Z,8.33
2018-04-18T01:06:52.013Z,8.25
2018-04-18T01:07:52.005Z,8.29
2018-04-18T01:08:52.010Z,8.28
2018-04-18T01:09:52.005Z,8.18
2018-04-18T01:10:52.004Z,8.29
2018-04-18T01:11:52.046Z,8.33
2018-04-18T01:12:51.995Z,8.26
2018-04-18T01:13:51.998Z,8.20
2018-04-18T01:14:52.006Z,8.30
2018-04-18T01:15:52.059Z,8.29
2018-04-18T01:16:51.998Z,8.33
2018-04-18T01:17:51.995Z,8.28
2018-04-18T01:18:52.001Z,8.21
2018-04-18T01:19:51.986Z,8.20
2018-04-18T01:20:51.992Z,8.17
2018-04-18T01:21:52.047Z,8.07
2018-04-18T01:22:51.983Z,8.08
2018-04-18T01:23:51.987Z,8.12
2018-04-18T01:24:51.990Z,8.12
2018-04-18T01:25:51.988Z,8.18
2018-04-18T01:26:52.075Z,8.18
2018-04-18T01:27:51.984Z,8.10
2018-04-18T01:28:51.979Z,8.04
2018-04-18T01:29:51.973Z,8.04
2018-04-18T01:30:51.979Z,8.02
2018-04-18T01:31:53.711Z,8.08
2018-04-18T01:32:51.967Z,7.97
2018-04-18T01:33:51.973Z,8.04
2018-04-18T01:34:51.972Z,8.08
2018-04-18T01:35:51.969Z,8.08
2018-04-18T01:36:51.965Z,8.07
2018-04-18T01:37:52.089Z,8.10
2018-04-18T01:38:51.992Z,7.94
2018-04-18T01:39:51.967Z,7.99
2018-04-18T01:40:51.966Z,8.04
2018-04-18T01:41:51.960Z,7.94
2018-04-18T01:42:52.022Z,8.04
2018-04-18T01:43:51.955Z,8.11
2018-04-18T01:44:52.343Z,8.08
2018-04-18T01:45:51.952Z,8.04
2018-04-18T01:47:13.576Z,8.04
2018-04-18T01:47:51.948Z,8.03
2018-04-18T01:48:51.948Z,8.10
2018-04-18T01:49:51.949Z,8.10
2018-04-18T01:50:52.879Z,8.02
2018-04-18T01:51:51.985Z,8.12
2018-04-18T01:52:51.943Z,7.99
2018-04-18T01:53:51.940Z,7.96
2018-04-18T01:54:51.931Z,7.90
2018-04-18T01:55:51.935Z,7.90
2018-04-18T01:56:51.982Z,7.97
2018-04-18T01:57:51.937Z,7.99
2018-04-18T01:58:52.032Z,8.04
2018-04-18T01:59:51.931Z,8.07
2018-04-18T02:00:51.925Z,8.07
2018-04-18T02:01:52.087Z,8.07
2018-04-18T02:02:51.929Z,8.10
2018-04-18T02:03:51.915Z,8.07
2018-04-18T02:04:51.921Z,8.10
2018-04-18T02:05:51.923Z,8.08
2018-04-18T02:06:51.917Z,7.94
2018-04-18T02:07:51.963Z,7.96
2018-04-18T02:08:51.917Z,7.93
2018-04-18T02:09:51.904Z,7.87
2018-04-18T02:10:51.907Z,7.87
2018-04-18T02:11:51.951Z,7.85
2018-04-18T02:12:51.906Z,7.79
2018-04-18T02:13:51.907Z,7.67
2018-04-18T02:14:51.903Z,7.66
2018-04-18T02:15:51.903Z,7.67
2018-04-18T02:16:51.943Z,7.77
2018-04-18T02:17:51.898Z,7.82
2018-04-18T02:18:51.892Z,7.78
2018-04-18T02:19:51.895Z,7.74
2018-04-18T02:20:51.893Z,7.74
2018-04-18T02:21:51.934Z,7.69
2018-04-18T02:22:51.889Z,7.75
2018-04-18T02:23:52.716Z,7.74
2018-04-18T02:24:51.887Z,7.84
2018-04-18T02:25:51.880Z,7.82
2018-04-18T02:26:51.923Z,7.81
2018-04-18T02:27:51.881Z,7.81
2018-04-18T02:28:51.872Z,7.74
2018-04-18T02:29:51.878Z,7.66
2018-04-18T02:30:51.880Z,7.77
2018-04-18T02:31:51.927Z,7.71
2018-04-18T02:32:51.871Z,7.60
2018-04-18T02:33:51.864Z,7.56
2018-04-18T02:34:51.944Z,7.69
2018-04-18T02:35:51.864Z,7.67
2018-04-18T02:37:02.559Z,7.72
2018-04-18T02:37:51.860Z,7.69
2018-04-18T02:38:51.852Z,7.72
2018-04-18T02:39:51.861Z,7.63
2018-04-18T02:40:51.857Z,7.66
2018-04-18T02:41:52.296Z,7.67
2018-04-18T02:42:51.856Z,7.72
2018-04-18T02:43:51.848Z,7.69
2018-04-18T02:44:51.841Z,7.74
2018-04-18T02:45:51.848Z,7.69
2018-04-18T02:46:51.907Z,7.75
2018-04-18T02:47:51.840Z,7.59
2018-04-18T02:48:51.844Z,7.66
2018-04-18T02:49:51.840Z,7.59
2018-04-18T02:50:51.836Z,7.59
2018-04-18T02:51:51.887Z,7.58
2018-04-18T02:52:51.836Z,7.60
2018-04-18T02:53:51.827Z,7.66
2018-04-18T02:54:51.830Z,7.60
2018-04-18T02:55:51.827Z,7.63
2018-04-18T02:56:51.871Z,7.49
2018-04-18T02:57:51.825Z,7.49
2018-04-18T02:58:51.820Z,7.49
2018-04-18T02:59:51.827Z,7.56
2018-04-18T03:00:51.873Z,7.53
2018-04-18T03:01:51.815Z,7.58
2018-04-18T03:02:51.811Z,7.50
2018-04-18T03:03:51.809Z,7.60
2018-04-18T03:04:51.807Z,7.77
2018-04-18T03:05:51.808Z,7.75
2018-04-18T03:06:51.853Z,7.75
2018-04-18T03:07:51.800Z,7.81
2018-04-18T03:08:51.801Z,7.81
2018-04-18T03:09:51.797Z,7.81
2018-04-18T03:10:51.797Z,7.78
2018-04-18T03:11:51.835Z,7.75
2018-04-18T03:12:51.790Z,7.82
2018-04-18T03:13:51.784Z,7.84
2018-04-18T03:14:51.791Z,7.84
2018-04-18T03:15:51.785Z,7.81
2018-04-18T03:16:51.833Z,7.81
2018-04-18T03:17:51.781Z,7.75
2018-04-18T03:18:51.781Z,7.81
2018-04-18T03:19:51.786Z,7.82
2018-04-18T03:20:51.777Z,7.84
2018-04-18T03:22:02.735Z,7.84
2018-04-18T03:22:51.796Z,7.77
2018-04-18T03:23:51.798Z,7.85
2018-04-18T03:24:51.849Z,7.82
2018-04-18T03:25:51.791Z,7.81
2018-04-18T03:26:51.786Z,7.77
2018-04-18T03:27:51.822Z,7.82
2018-04-18T03:28:51.778Z,7.81
2018-04-18T03:29:51.781Z,7.82
2018-04-18T03:30:51.779Z,7.84
2018-04-18T03:31:51.779Z,7.77
2018-04-18T03:32:51.889Z,7.71
2018-04-18T03:33:51.771Z,7.62
2018-04-18T03:34:52.424Z,7.66
2018-04-18T03:35:51.817Z,7.63
2018-04-18T03:36:51.764Z,7.63
2018-04-18T03:37:52.555Z,7.75
2018-04-18T03:38:51.763Z,7.71
2018-04-18T03:39:51.992Z,7.75
2018-04-18T03:40:51.787Z,7.63
2018-04-18T03:41:51.767Z,7.60
2018-04-18T03:42:51.806Z,7.52
2018-04-18T03:44:03.331Z,7.53
2018-04-18T03:44:51.751Z,7.49
2018-04-18T03:45:51.743Z,7.53
2018-04-18T03:46:51.773Z,7.62
2018-04-18T03:47:51.744Z,7.59
2018-04-18T03:48:51.791Z,7.63
2018-04-18T03:49:51.749Z,7.72
2018-04-18T03:50:51.742Z,7.71
2018-04-18T03:51:51.735Z,7.71
2018-04-18T03:52:59.568Z,7.71
2018-04-18T03:53:51.727Z,7.59
2018-04-18T03:54:51.723Z,7.50
2018-04-18T03:55:51.723Z,7.32
2018-04-18T03:56:55.902Z,7.32
2018-04-18T03:57:53.582Z,7.26
2018-04-18T03:58:51.716Z,7.20
2018-04-18T03:59:51.721Z,7.22
2018-04-18T04:00:51.719Z,7.17
2018-04-18T04:01:51.714Z,7.15
2018-04-18T04:02:51.774Z,7.15
2018-04-18T04:03:51.708Z,7.04
2018-04-18T04:04:51.712Z,7.05
2018-04-18T04:05:51.706Z,6.97
2018-04-18T04:06:51.710Z,7.02
2018-04-18T04:07:51.880Z,6.99
2018-04-18T04:08:51.704Z,7.15
2018-04-18T04:09:51.699Z,7.16
2018-04-18T04:10:51.696Z,7.24
2018-04-18T04:11:51.695Z,7.32
2018-04-18T04:12:51.688Z,7.19
2018-04-18T04:13:51.748Z,7.15
2018-04-18T04:14:51.689Z,7.08
2018-04-18T04:15:51.684Z,7.02
2018-04-18T04:16:51.680Z,7.01
2018-04-18T04:17:51.681Z,6.94
2018-04-18T04:18:51.677Z,6.90
2018-04-18T04:19:51.753Z,6.98
2018-04-18T04:20:51.677Z,7.02
2018-04-18T04:21:51.672Z,7.09
2018-04-18T04:22:51.673Z,7.16
2018-04-18T04:23:51.725Z,7.27
2018-04-18T04:24:51.729Z,7.20
2018-04-18T04:25:51.665Z,7.24
2018-04-18T04:26:51.661Z,7.20
2018-04-18T04:27:51.657Z,7.20
2018-04-18T04:28:51.655Z,7.27
2018-04-18T04:29:51.697Z,7.23
2018-04-18T04:30:51.652Z,7.22
2018-04-18T04:31:51.655Z,7.31
2018-04-18T04:32:51.648Z,7.31
2018-04-18T04:33:51.643Z,7.34
2018-04-18T04:34:51.852Z,7.37
2018-04-18T04:35:51.645Z,7.38
2018-04-18T04:36:51.632Z,7.35
2018-04-18T04:37:51.646Z,7.32
2018-04-18T04:38:51.643Z,7.47
2018-04-18T04:39:51.635Z,7.58
2018-04-18T04:40:51.678Z,7.59
2018-04-18T04:41:51.632Z,7.66
2018-04-18T04:42:51.626Z,7.63
2018-04-18T04:43:51.631Z,7.74
2018-04-18T04:44:51.685Z,7.85
2018-04-18T04:45:51.926Z,7.82
2018-04-18T04:46:51.619Z,7.81
2018-04-18T04:47:53.784Z,7.84
2018-04-18T04:48:51.612Z,7.82
2018-04-18T04:49:59.548Z,7.85
2018-04-18T04:50:51.666Z,7.87
2018-04-18T04:51:51.610Z,7.94
2018-04-18T04:52:51.603Z,8.03
2018-04-18T04:53:51.611Z,8.02
2018-04-18T04:54:51.604Z,8.04
2018-04-18T04:55:52.600Z,8.26
2018-04-18T04:56:51.595Z,8.30
2018-04-18T04:57:51.596Z,8.47
2018-04-18T04:58:51.597Z,8.54
2018-04-18T04:59:51.596Z,8.62
2018-04-18T05:00:51.645Z,8.69
2018-04-18T05:01:51.588Z,8.79
2018-04-18T05:02:51.606Z,8.90
2018-04-18T05:03:51.585Z,8.84
2018-04-18T05:04:51.633Z,8.99
2018-04-18T05:05:51.583Z,9.12
2018-04-18T05:06:51.583Z,9.32
2018-04-18T05:07:51.582Z,9.45
2018-04-18T05:08:51.573Z,9.66
2018-04-18T05:09:51.617Z,9.79
2018-04-18T05:10:51.601Z,9.96
2018-04-18T05:11:51.576Z,10.17
2018-04-18T05:12:51.579Z,10.36
2018-04-18T05:13:51.572Z,10.58
2018-04-18T05:14:51.629Z,10.96
2018-04-18T05:15:51.571Z,11.07
2018-04-18T05:16:51.569Z,11.01
2018-04-18T05:17:51.570Z,10.96
2018-04-18T05:18:51.569Z,11.03
2018-04-18T05:19:51.619Z,11.29
2018-04-18T05:20:51.563Z,11.43
2018-04-18T05:21:51.558Z,11.53
2018-04-18T05:22:51.569Z,11.85
2018-04-18T05:23:51.560Z,11.94
2018-04-18T05:24:51.598Z,12.26
2018-04-18T05:25:51.554Z,12.37
2018-04-18T05:26:51.558Z,12.16
2018-04-18T05:27:51.554Z,12.13
2018-04-18T05:28:51.552Z,12.39
2018-04-18T05:29:51.606Z,12.46
2018-04-18T05:30:51.629Z,12.77
2018-04-18T05:31:52.515Z,12.92
2018-04-18T05:32:52.540Z,13.25
2018-04-18T05:33:51.550Z,13.25
2018-04-18T05:34:52.215Z,13.47
2018-04-18T05:35:51.552Z,13.71
2018-04-18T05:36:51.557Z,13.88
2018-04-18T05:37:51.554Z,13.96
2018-04-18T05:38:51.579Z,14.27
2018-04-18T05:39:51.604Z,14.39
2018-04-18T05:40:51.555Z,14.61
2018-04-18T05:41:51.556Z,14.75
2018-04-18T05:42:51.547Z,14.72
2018-04-18T05:43:51.552Z,15.05
2018-04-18T05:44:51.596Z,15.13
2018-04-18T05:45:51.552Z,14.98
2018-04-18T05:46:51.556Z,14.90
2018-04-18T05:47:51.552Z,14.78
2018-04-18T05:48:51.555Z,14.98
2018-04-18T05:49:51.600Z,14.83
2018-04-18T05:50:51.648Z,14.78
2018-04-18T05:51:51.553Z,14.80
2018-04-18T05:52:51.564Z,14.69
2018-04-18T05:53:51.561Z,14.53
2018-04-18T05:54:51.623Z,14.72
2018-04-18T05:55:51.560Z,14.38
2018-04-18T05:56:51.566Z,14.47
2018-04-18T05:57:51.564Z,14.78
2018-04-18T05:58:51.573Z,15.05
2018-04-18T05:59:51.870Z,15.39
2018-04-18T06:00:51.571Z,15.76
2018-04-18T06:01:51.569Z,15.93
2018-04-18T06:02:51.583Z,15.79
2018-04-18T06:03:51.973Z,16.03
2018-04-18T06:04:51.612Z,16.20
2018-04-18T06:06:06.110Z,16.75
2018-04-18T06:06:51.583Z,16.83
2018-04-18T06:07:51.577Z,16.99
2018-04-18T06:08:51.582Z,17.11
2018-04-18T06:09:51.588Z,17.38
2018-04-18T06:10:55.304Z,17.25
2018-04-18T06:11:51.586Z,17.14
2018-04-18T06:12:51.592Z,17.41
2018-04-18T06:13:51.593Z,17.63
2018-04-18T06:14:51.595Z,17.85
2018-04-18T06:15:51.643Z,18.03
2018-04-18T06:16:51.602Z,17.94
2018-04-18T06:17:51.627Z,17.44
2018-04-18T06:18:51.610Z,17.10
2018-04-18T06:19:51.831Z,16.85
2018-04-18T06:20:51.611Z,16.86
2018-04-18T06:21:51.617Z,16.90
2018-04-18T06:22:51.838Z,17.20
2018-04-18T06:23:51.623Z,17.46
2018-04-18T06:24:52.063Z,17.70
2018-04-18T06:25:51.630Z,18.15
2018-04-18T06:26:51.637Z,18.37
2018-04-18T06:27:51.652Z,18.59
2018-04-18T06:28:51.646Z,18.99
2018-04-18T06:29:52.548Z,19.06
2018-04-18T06:30:51.687Z,18.94
2018-04-18T06:31:51.686Z,19.10
2018-04-18T06:32:51.661Z,19.05
2018-04-18T06:33:51.667Z,19.13
2018-04-18T06:34:51.662Z,19.17
2018-04-18T06:35:51.723Z,19.10
2018-04-18T06:36:51.676Z,19.33
2018-04-18T06:37:51.764Z,19.05
2018-04-18T06:38:51.679Z,19.08
2018-04-18T06:39:51.689Z,18.87
2018-04-18T06:40:51.728Z,19.05
2018-04-18T06:41:51.697Z,19.18
2018-04-18T06:42:51.706Z,19.38
2018-04-18T06:43:51.705Z,19.36
2018-04-18T06:44:51.710Z,19.46
2018-04-18T06:45:51.770Z,19.66
2018-04-18T06:46:51.725Z,20.03
2018-04-18T06:47:53.414Z,20.20
2018-04-18T06:48:51.727Z,20.28
2018-04-18T06:49:51.838Z,20.02
2018-04-18T06:50:59.605Z,20.24
2018-04-18T06:51:51.749Z,20.43
2018-04-18T06:52:51.745Z,20.28
2018-04-18T06:53:51.758Z,20.25
2018-04-18T06:54:51.759Z,20.20
2018-04-18T06:56:02.621Z,20.30
2018-04-18T06:56:51.769Z,20.20
2018-04-18T06:57:51.781Z,20.28
2018-04-18T06:58:51.788Z,20.30
2018-04-18T06:59:51.791Z,20.28
2018-04-18T07:00:55.115Z,20.47
2018-04-18T07:01:51.805Z,20.54
2018-04-18T07:02:51.818Z,20.51
2018-04-18T07:03:51.813Z,20.43
2018-04-18T07:04:51.826Z,20.49
2018-04-18T07:05:52.029Z,20.72
2018-04-18T07:06:51.833Z,20.56
2018-04-18T07:07:51.854Z,20.58
2018-04-18T07:08:51.847Z,20.72
2018-04-18T07:09:51.856Z,20.86
2018-04-18T07:10:51.863Z,20.56
2018-04-18T07:11:51.916Z,20.43
2018-04-18T07:12:51.879Z,20.76
2018-04-18T07:13:51.882Z,21.23
2018-04-18T07:14:51.891Z,21.46
2018-04-18T07:15:52.046Z,20.72
2018-04-18T07:16:52.640Z,19.76
2018-04-18T07:17:51.912Z,19.02
2018-04-18T07:18:51.924Z,19.35
2018-04-18T07:19:51.941Z,19.38
2018-04-18T07:20:51.940Z,19.35
2018-04-18T07:21:52.016Z,20.06
2018-04-18T07:22:51.949Z,20.41
2018-04-18T07:23:51.958Z,20.90
2018-04-18T07:24:51.980Z,21.61
2018-04-18T07:25:51.980Z,21.98
2018-04-18T07:26:52.766Z,22.10
2018-04-18T07:27:51.992Z,22.43
2018-04-18T07:28:52.005Z,22.44
2018-04-18T07:29:52.010Z,22.57
2018-04-18T07:30:52.017Z,22.52
2018-04-18T07:31:52.025Z,22.34
2018-04-18T07:32:52.091Z,22.62
2018-04-18T07:33:52.049Z,22.75
2018-04-18T07:34:52.063Z,23.08
2018-04-18T07:35:52.069Z,23.42
2018-04-18T07:36:52.076Z,23.19
2018-04-18T07:37:52.161Z,23.02
2018-04-18T07:38:52.098Z,23.01
2018-04-18T07:39:52.105Z,23.09
2018-04-18T07:40:52.122Z,23.26
2018-04-18T07:41:52.134Z,23.46
2018-04-18T07:42:55.622Z,23.49
2018-04-18T07:43:52.146Z,23.68
2018-04-18T07:44:52.160Z,23.75
2018-04-18T07:45:52.166Z,23.98
2018-04-18T07:46:52.195Z,23.87
2018-04-18T07:47:52.229Z,24.01
2018-04-18T07:48:52.207Z,24.29
2018-04-18T07:49:52.219Z,24.20
2018-04-18T07:50:52.231Z,23.83
2018-04-18T07:51:52.231Z,23.71
2018-04-18T07:52:52.299Z,23.89
2018-04-18T07:53:52.266Z,23.89
2018-04-18T07:54:52.327Z,23.62
2018-04-18T07:55:52.353Z,23.45
2018-04-18T07:56:52.288Z,23.39
2018-04-18T07:57:52.655Z,23.57
2018-04-18T07:58:52.317Z,23.71
2018-04-18T07:59:52.335Z,24.04
2018-04-18T08:00:52.342Z,24.16
2018-04-18T08:01:52.622Z,24.29
2018-04-18T08:02:55.625Z,24.44
2018-04-18T08:03:52.380Z,24.49
2018-04-18T08:04:52.390Z,24.64
2018-04-18T08:05:52.400Z,24.67
2018-04-18T08:06:52.491Z,24.26
2018-04-18T08:07:52.424Z,24.19
2018-04-18T08:08:52.432Z,24.26
2018-04-18T08:09:52.563Z,24.71
2018-04-18T08:10:52.478Z,24.75
2018-04-18T08:11:52.473Z,24.83
2018-04-18T08:12:52.543Z,24.94
2018-04-18T08:13:52.507Z,24.82
2018-04-18T08:14:52.521Z,24.97
2018-04-18T08:15:52.533Z,24.97
2018-04-18T08:16:52.541Z,24.82
2018-04-18T08:17:52.604Z,24.91
2018-04-18T08:18:52.573Z,25.09
2018-04-18T08:19:52.594Z,25.62
2018-04-18T08:20:52.593Z,25.82
2018-04-18T08:21:52.623Z,26.18
2018-04-18T08:22:52.675Z,26.27
2018-04-18T08:23:53.031Z,26.24
2018-04-18T08:24:52.648Z,26.24
2018-04-18T08:25:52.661Z,26.28
2018-04-18T08:26:52.674Z,26.12
2018-04-18T08:28:03.660Z,26.11
2018-04-18T08:28:52.702Z,26.21
2018-04-18T08:29:52.787Z,26.52
2018-04-18T08:30:52.745Z,26.72
2018-04-18T08:31:52.760Z,27.04
2018-04-18T08:32:52.776Z,27.04
2018-04-18T08:33:53.639Z,27.09
2018-04-18T08:34:52.796Z,26.96
2018-04-18T08:35:52.802Z,26.91
2018-04-18T08:36:52.832Z,26.69
2018-04-18T08:37:52.848Z,26.80
2018-04-18T08:38:52.940Z,26.77
2018-04-18T08:39:52.865Z,27.06
2018-04-18T08:40:52.891Z,27.10
2018-04-18T08:41:52.892Z,27.20
2018-04-18T08:42:52.916Z,27.43
2018-04-18T08:43:52.997Z,27.26
2018-04-18T08:44:52.955Z,27.41
2018-04-18T08:45:52.966Z,27.28
2018-04-18T08:46:52.991Z,27.29
2018-04-18T08:47:52.991Z,27.38
2018-04-18T08:48:53.064Z,27.57
2018-04-18T08:49:53.020Z,27.58
2018-04-18T08:50:53.047Z,27.62
2018-04-18T08:51:53.074Z,27.73
2018-04-18T08:52:53.090Z,27.24
2018-04-18T08:53:53.141Z,26.99
2018-04-18T08:54:53.112Z,26.98
2018-04-18T08:55:53.129Z,26.84
2018-04-18T08:56:53.146Z,26.72
2018-04-18T08:57:54.245Z,27.13
2018-04-18T08:58:53.172Z,27.05
2018-04-18T08:59:53.190Z,27.04
2018-04-18T09:00:53.213Z,27.06
2018-04-18T09:01:53.231Z,27.33
2018-04-18T09:02:53.313Z,27.67
2018-04-18T09:03:53.257Z,27.69
2018-04-18T09:04:53.293Z,27.77
2018-04-18T09:05:53.305Z,27.79
2018-04-18T09:06:53.313Z,27.73
2018-04-18T09:07:53.413Z,27.86
2018-04-18T09:08:53.346Z,27.89
2018-04-18T09:09:53.375Z,28.13
2018-04-18T09:10:53.381Z,28.40
2018-04-18T09:11:53.417Z,28.32
2018-04-18T09:13:11.709Z,28.47
2018-04-18T09:13:53.438Z,27.96
2018-04-18T09:14:53.456Z,27.84
2018-04-18T09:15:53.467Z,27.76
2018-04-18T09:16:53.493Z,27.95
2018-04-18T09:17:53.674Z,27.79
2018-04-18T09:18:53.532Z,27.99
2018-04-18T09:19:53.542Z,27.69
2018-04-18T09:20:53.570Z,27.54
2018-04-18T09:21:53.580Z,27.59
2018-04-18T09:22:53.603Z,27.67
2018-04-18T09:23:53.666Z,27.76
2018-04-18T09:24:53.639Z,27.88
2018-04-18T09:25:53.656Z,28.09
2018-04-18T09:26:53.692Z,28.21
2018-04-18T09:27:53.696Z,28.31
2018-04-18T09:29:08.937Z,28.58
2018-04-18T09:29:53.729Z,28.73
2018-04-18T09:30:53.743Z,28.95
2018-04-18T09:31:53.772Z,29.28
2018-04-18T09:32:53.797Z,29.53
2018-04-18T09:33:53.865Z,29.53
2018-04-18T09:34:53.820Z,29.34
2018-04-18T09:35:53.848Z,29.66
2018-04-18T09:36:53.870Z,29.71
2018-04-18T09:37:53.939Z,29.53
2018-04-18T09:38:53.908Z,29.28
2018-04-18T09:39:53.928Z,29.34
2018-04-18T09:40:53.935Z,29.29
2018-04-18T09:41:53.957Z,29.55
2018-04-18T09:42:54.036Z,29.56
2018-04-18T09:43:54.023Z,29.03
2018-04-18T09:44:54.034Z,29.08
2018-04-18T09:45:54.045Z,29.01
2018-04-18T09:46:54.204Z,29.06
2018-04-18T09:47:54.152Z,28.90
2018-04-18T09:48:54.106Z,29.04
2018-04-18T09:49:55.163Z,29.15
2018-04-18T09:50:54.154Z,28.88
2018-04-18T09:51:54.202Z,28.93
2018-04-18T09:52:54.249Z,29.08
2018-04-18T09:53:54.215Z,29.10
2018-04-18T09:54:54.238Z,29.33
2018-04-18T09:55:54.260Z,29.50
2018-04-18T09:56:54.285Z,29.82
2018-04-18T09:58:02.187Z,30.15
2018-04-18T09:58:54.320Z,29.86
2018-04-18T09:59:54.335Z,29.68
2018-04-18T10:00:54.372Z,28.01
2018-04-18T10:01:54.396Z,25.50
2018-04-18T10:02:54.419Z,25.30
2018-04-18T10:03:54.491Z,25.09
2018-04-18T10:04:54.446Z,25.47
2018-04-18T10:05:54.471Z,25.16
2018-04-18T10:06:54.500Z,26.24
2018-04-18T10:07:54.505Z,27.10
2018-04-18T10:08:54.584Z,27.58
2018-04-18T10:09:54.564Z,28.16
2018-04-18T10:10:54.575Z,28.96
2018-04-18T10:11:55.194Z,29.52
2018-04-18T10:12:54.616Z,27.50
2018-04-18T10:13:54.680Z,25.09
2018-04-18T10:14:54.658Z,25.57
2018-04-18T10:15:54.681Z,26.92
2018-04-18T10:16:54.705Z,27.69
2018-04-18T10:17:54.730Z,27.84
2018-04-18T10:19:05.686Z,26.02
2018-04-18T10:19:54.766Z,25.20
2018-04-18T10:20:54.798Z,25.86
2018-04-18T10:21:54.790Z,26.29
2018-04-18T10:22:55.637Z,27.26
2018-04-18T10:25:26.541Z,25.50
2018-04-18T10:26:26.563Z,25.15
2018-04-18T10:27:26.577Z,25.44
2018-04-18T10:28:34.651Z,25.74
2018-04-18T10:29:26.627Z,25.84
2018-04-18T10:30:26.639Z,26.32
2018-04-18T10:31:26.673Z,26.79
2018-04-18T10:32:26.689Z,27.35
2018-04-18T10:33:26.712Z,27.31
2018-04-18T10:34:26.776Z,27.38
2018-04-18T10:35:26.759Z,26.69
2018-04-18T10:36:26.771Z,25.06
2018-04-18T10:37:27.413Z,24.63
2018-04-18T10:38:26.815Z,25.87
2018-04-18T10:39:26.919Z,26.21
2018-04-18T10:40:26.860Z,25.99
2018-04-18T10:41:26.885Z,25.06
2018-04-18T10:42:26.918Z,24.41
2018-04-18T10:43:26.967Z,23.57
2018-04-18T10:44:34.649Z,23.62
2018-04-18T10:45:27.083Z,23.77
2018-04-18T10:46:26.994Z,24.12
2018-04-18T10:47:27.019Z,25.16
2018-04-18T10:48:27.037Z,26.21
2018-04-18T10:49:27.054Z,26.95
2018-04-18T10:50:27.141Z,27.29
2018-04-18T10:51:27.107Z,26.76
2018-04-18T10:52:27.127Z,27.06
2018-04-18T10:53:27.142Z,27.17
2018-04-18T10:54:27.163Z,26.99
2018-04-18T10:55:38.145Z,26.68
2018-04-18T10:56:27.204Z,26.05
2018-04-18T10:57:27.238Z,26.47
2018-04-18T10:58:27.253Z,27.01
2018-04-18T10:59:27.276Z,27.67
2018-04-18T11:00:27.447Z,28.25
2018-04-18T11:01:27.316Z,28.75
2018-04-18T11:02:27.342Z,28.95
2018-04-18T11:03:27.365Z,28.40
2018-04-18T11:04:27.387Z,27.96
2018-04-18T11:05:27.585Z,26.80
2018-04-18T11:06:29.310Z,26.12
2018-04-18T11:07:27.450Z,26.76
2018-04-18T11:08:27.478Z,27.89
2018-04-18T11:09:27.495Z,28.69
2018-04-18T11:10:27.523Z,29.50
2018-04-18T11:11:27.688Z,28.28
2018-04-18T11:12:27.583Z,25.50
2018-04-18T11:13:27.587Z,25.27
2018-04-18T11:14:28.634Z,25.01
2018-04-18T11:15:27.960Z,23.98
2018-04-18T11:16:33.239Z,23.76
2018-04-18T11:17:27.676Z,23.80
2018-04-18T11:18:27.762Z,24.10
2018-04-18T11:19:27.717Z,23.97
2018-04-18T11:20:27.817Z,23.98
2018-04-18T11:21:27.792Z,23.83
2018-04-18T11:22:42.315Z,24.19
2018-04-18T11:23:27.845Z,24.22
2018-04-18T11:24:27.846Z,24.97
2018-04-18T11:25:27.926Z,25.79
2018-04-18T11:26:27.971Z,25.02
2018-04-18T11:27:28.960Z,25.71
2018-04-18T11:28:27.919Z,25.61
2018-04-18T11:29:27.934Z,25.07
2018-04-18T11:30:27.951Z,24.47
2018-04-18T11:31:27.966Z,24.37
2018-04-18T11:33:03.164Z,24.20
2018-04-18T11:33:28.011Z,24.12
2018-04-18T11:34:28.027Z,24.08
2018-04-18T11:35:28.052Z,24.44
2018-04-18T11:36:31.171Z,25.00
2018-04-18T11:37:28.093Z,23.94
2018-04-18T11:38:28.125Z,24.20
2018-04-18T11:39:28.832Z,24.38
2018-04-18T11:40:28.152Z,24.47
2018-04-18T11:42:07.675Z,25.00
2018-04-18T11:42:28.196Z,24.53
2018-04-18T11:43:28.816Z,25.02
2018-04-18T11:44:28.713Z,25.84
2018-04-18T11:45:28.379Z,25.77
2018-04-18T11:46:28.275Z,25.50
2018-04-18T11:49:02.083Z,25.64
2018-04-18T11:50:00.526Z,25.83
2018-04-18T11:51:00.546Z,26.17
2018-04-18T11:52:00.635Z,26.74
2018-04-18T11:53:00.591Z,27.58
2018-04-18T11:54:00.612Z,27.99
2018-04-18T11:55:00.638Z,28.93
2018-04-18T11:56:00.695Z,29.66
2018-04-18T11:57:00.855Z,29.92
2018-04-18T11:58:00.691Z,29.70
2018-04-18T11:59:00.730Z,29.66
2018-04-18T12:00:00.735Z,28.65
2018-04-18T12:01:00.773Z,27.17
2018-04-18T12:02:00.798Z,27.77
2018-04-18T12:03:04.124Z,27.85
2018-04-18T12:04:00.825Z,27.06
2018-04-18T12:05:00.845Z,26.09
2018-04-18T12:06:00.867Z,25.83
2018-04-18T12:07:00.897Z,25.47
2018-04-18T12:08:36.148Z,25.72
2018-04-18T12:09:00.941Z,25.87
2018-04-18T12:10:00.985Z,25.97
2018-04-18T12:11:01.020Z,25.86
2018-04-18T12:12:01.020Z,24.75
2018-04-18T12:13:01.174Z,24.77
2018-04-18T12:14:01.068Z,24.73
2018-04-18T12:15:02.046Z,24.91
2018-04-18T12:16:01.263Z,26.28
2018-04-18T12:17:01.191Z,25.74
2018-04-18T12:19:32.936Z,25.54
2018-04-18T12:20:32.812Z,25.62
2018-04-18T12:21:32.873Z,26.21
2018-04-18T12:22:32.909Z,26.61
2018-04-18T12:23:32.937Z,26.55
2018-04-18T12:24:32.895Z,26.46
2018-04-18T12:25:32.947Z,26.68
2018-04-18T12:26:32.913Z,26.76
2018-04-18T12:27:32.939Z,27.58
2018-04-18T12:28:33.006Z,28.09
2018-04-18T12:29:32.992Z,28.46
2018-04-18T12:30:33.073Z,27.39
2018-04-18T12:31:33.024Z,26.43
2018-04-18T12:32:33.080Z,26.20
2018-04-18T12:33:33.234Z,27.01
2018-04-18T12:34:33.087Z,25.99
2018-04-18T12:35:33.110Z,25.24
2018-04-18T12:36:33.130Z,25.52
2018-04-18T12:37:33.179Z,25.49
2018-04-18T12:38:34.915Z,25.71
2018-04-18T12:39:33.253Z,25.80
2018-04-18T12:40:33.213Z,26.95
2018-04-18T12:41:33.238Z,27.76
2018-04-18T12:42:33.265Z,27.57
2018-04-18T12:43:33.332Z,25.91
2018-04-18T12:44:33.306Z,25.44
2018-04-18T12:45:33.316Z,25.69
2018-04-18T12:46:33.341Z,26.58
2018-04-18T12:47:33.379Z,27.64
2018-04-18T12:48:41.425Z,26.68
2018-04-18T12:49:33.413Z,27.11
2018-04-18T12:50:33.433Z,27.23
2018-04-18T12:51:33.452Z,25.87
2018-04-18T12:52:33.469Z,25.15
2018-04-18T12:53:45.129Z,25.09
2018-04-18T12:54:33.526Z,24.80
2018-04-18T12:55:33.534Z,24.79
2018-04-18T12:56:33.565Z,24.75
2018-04-18T12:57:33.590Z,24.26
2018-04-18T12:58:38.982Z,23.90
2018-04-18T12:59:33.667Z,24.20
2018-04-18T13:00:33.649Z,25.07
2018-04-18T13:01:33.673Z,25.30
2018-04-18T13:02:33.694Z,25.49
2018-04-18T13:03:35.477Z,26.43
2018-04-18T13:04:33.727Z,26.98
2018-04-18T13:05:33.746Z,26.83
2018-04-18T13:06:33.772Z,26.36
2018-04-18T13:07:33.784Z,25.57